sensor_id;sensor_type;location;lat;lon;timestamp;temperature;humidity
30250;DHT22;17064;47.974;13.826;2023-04-24T00:03:21;11.50;99.90
30250;DHT22;17064;47.974;13.826;2023-04-24T00:08:22;11.20;99.90
30250;DHT22;17064;47.974;13.826;2023-04-24T00:13:24;11.10;99.90
30250;DHT22;17064;47.974;13.826;2023-04-24T00:18:24;10.90;99.90
30250;DHT22;17064;47.974;13.826;2023-04-24T00:23:25;10.80;99.90
30250;DHT22;17064;47.974;13.826;2023-04-24T00:28:26;10.70;99.90
30250;DHT22;17064;47.974;13.826;2023-04-24T00:33:26;10.70;99.90
30250;DHT22;17064;47.974;13.826;2023-04-24T00:38:27;10.60;99.90
30250;DHT22;17064;47.974;13.826;2023-04-24T00:43:28;10.60;99.90
30250;DHT22;17064;47.974;13.826;2023-04-24T00:48:28;10.60;99.90
30250;DHT22;17064;47.974;13.826;2023-04-24T00:53:29;10.60;99.90
30250;DHT22;17064;47.974;13.826;2023-04-24T00:58:30;10.60;99.90
30250;DHT22;17064;47.974;13.826;2023-04-24T01:03:32;10.60;99.90
30250;DHT22;17064;47.974;13.826;2023-04-24T01:08:34;10.50;99.90
30250;DHT22;17064;47.974;13.826;2023-04-24T01:13:36;10.50;99.90
30250;DHT22;17064;47.974;13.826;2023-04-24T01:18:37;10.50;99.90
30250;DHT22;17064;47.974;13.826;2023-04-24T01:23:38;10.50;99.90
30250;DHT22;17064;47.974;13.826;2023-04-24T01:28:39;10.40;99.90
30250;DHT22;17064;47.974;13.826;2023-04-24T01:33:41;10.40;99.90
30250;DHT22;17064;47.974;13.826;2023-04-24T01:38:42;10.40;99.90
30250;DHT22;17064;47.974;13.826;2023-04-24T01:43:43;10.40;99.90
30250;DHT22;17064;47.974;13.826;2023-04-24T01:48:45;10.40;99.90
30250;DHT22;17064;47.974;13.826;2023-04-24T01:53:45;10.40;99.90
30250;DHT22;17064;47.974;13.826;2023-04-24T01:58:46;10.30;99.90
30250;DHT22;17064;47.974;13.826;2023-04-24T02:03:47;10.30;99.90
30250;DHT22;17064;47.974;13.826;2023-04-24T02:08:48;10.30;99.90
30250;DHT22;17064;47.974;13.826;2023-04-24T02:13:49;10.20;99.90
30250;DHT22;17064;47.974;13.826;2023-04-24T02:18:50;10.20;99.90
30250;DHT22;17064;47.974;13.826;2023-04-24T02:23:51;10.20;99.90
30250;DHT22;17064;47.974;13.826;2023-04-24T02:28:52;10.10;99.90
30250;DHT22;17064;47.974;13.826;2023-04-24T02:33:52;10.10;99.90
30250;DHT22;17064;47.974;13.826;2023-04-24T02:38:53;10.00;99.90
30250;DHT22;17064;47.974;13.826;2023-04-24T02:43:54;10.00;99.90
30250;DHT22;17064;47.974;13.826;2023-04-24T02:48:55;10.00;99.90
30250;DHT22;17064;47.974;13.826;2023-04-24T02:53:56;10.00;99.90
30250;DHT22;17064;47.974;13.826;2023-04-24T02:58:56;10.00;99.90
30250;DHT22;17064;47.974;13.826;2023-04-24T03:03:57;10.00;99.90
30250;DHT22;17064;47.974;13.826;2023-04-24T03:08:58;10.00;99.90
30250;DHT22;17064;47.974;13.826;2023-04-24T03:13:59;10.00;99.90
30250;DHT22;17064;47.974;13.826;2023-04-24T03:18:59;10.00;99.90
30250;DHT22;17064;47.974;13.826;2023-04-24T03:24:00;9.90;99.90
30250;DHT22;17064;47.974;13.826;2023-04-24T03:29:01;9.80;99.90
30250;DHT22;17064;47.974;13.826;2023-04-24T03:34:02;9.80;99.90
30250;DHT22;17064;47.974;13.826;2023-04-24T03:39:02;9.80;99.90
30250;DHT22;17064;47.974;13.826;2023-04-24T03:44:04;9.80;99.90
30250;DHT22;17064;47.974;13.826;2023-04-24T03:49:04;9.70;99.90
30250;DHT22;17064;47.974;13.826;2023-04-24T03:54:05;9.70;99.90
30250;DHT22;17064;47.974;13.826;2023-04-24T03:59:06;9.60;99.90
30250;DHT22;17064;47.974;13.826;2023-04-24T04:04:07;9.60;99.90
30250;DHT22;17064;47.974;13.826;2023-04-24T04:09:08;9.50;99.90
30250;DHT22;17064;47.974;13.826;2023-04-24T04:14:09;9.50;99.90
30250;DHT22;17064;47.974;13.826;2023-04-24T04:19:09;9.50;99.90
30250;DHT22;17064;47.974;13.826;2023-04-24T04:24:10;9.40;99.90
30250;DHT22;17064;47.974;13.826;2023-04-24T04:29:11;9.30;99.90
30250;DHT22;17064;47.974;13.826;2023-04-24T04:34:12;9.30;99.90
30250;DHT22;17064;47.974;13.826;2023-04-24T04:39:13;9.30;99.90
30250;DHT22;17064;47.974;13.826;2023-04-24T04:44:15;9.20;99.90
30250;DHT22;17064;47.974;13.826;2023-04-24T04:49:16;9.20;99.90
30250;DHT22;17064;47.974;13.826;2023-04-24T04:54:17;9.20;99.90
30250;DHT22;17064;47.974;13.826;2023-04-24T04:59:17;9.20;99.90
30250;DHT22;17064;47.974;13.826;2023-04-24T05:04:18;9.20;99.90
30250;DHT22;17064;47.974;13.826;2023-04-24T05:09:19;9.20;99.90
30250;DHT22;17064;47.974;13.826;2023-04-24T05:14:19;9.30;99.90
30250;DHT22;17064;47.974;13.826;2023-04-24T05:19:27;9.30;99.90
30250;DHT22;17064;47.974;13.826;2023-04-24T05:24:28;9.30;99.90
30250;DHT22;17064;47.974;13.826;2023-04-24T05:29:29;9.30;99.90
30250;DHT22;17064;47.974;13.826;2023-04-24T05:34:32;9.30;99.90
30250;DHT22;17064;47.974;13.826;2023-04-24T05:39:32;9.40;99.90
30250;DHT22;17064;47.974;13.826;2023-04-24T05:44:33;9.40;99.90
30250;DHT22;17064;47.974;13.826;2023-04-24T05:49:34;9.40;99.90
30250;DHT22;17064;47.974;13.826;2023-04-24T05:54:34;9.40;99.90
30250;DHT22;17064;47.974;13.826;2023-04-24T05:59:38;9.30;99.90
30250;DHT22;17064;47.974;13.826;2023-04-24T06:04:39;9.40;99.90
30250;DHT22;17064;47.974;13.826;2023-04-24T06:09:40;9.40;99.90
30250;DHT22;17064;47.974;13.826;2023-04-24T06:14:41;9.50;99.90
30250;DHT22;17064;47.974;13.826;2023-04-24T06:19:41;9.70;99.90
30250;DHT22;17064;47.974;13.826;2023-04-24T06:24:42;9.80;99.90
30250;DHT22;17064;47.974;13.826;2023-04-24T06:29:43;10.00;99.90
30250;DHT22;17064;47.974;13.826;2023-04-24T06:34:44;10.00;99.90
30250;DHT22;17064;47.974;13.826;2023-04-24T06:39:44;10.00;99.90
30250;DHT22;17064;47.974;13.826;2023-04-24T06:44:45;10.10;99.90
30250;DHT22;17064;47.974;13.826;2023-04-24T06:49:46;10.10;99.90
30250;DHT22;17064;47.974;13.826;2023-04-24T06:54:47;10.10;99.90
30250;DHT22;17064;47.974;13.826;2023-04-24T06:59:48;10.20;99.90
30250;DHT22;17064;47.974;13.826;2023-04-24T07:04:48;10.10;99.90
30250;DHT22;17064;47.974;13.826;2023-04-24T07:09:49;10.20;99.90
30250;DHT22;17064;47.974;13.826;2023-04-24T07:14:51;10.20;99.90
30250;DHT22;17064;47.974;13.826;2023-04-24T07:19:51;10.10;99.90
30250;DHT22;17064;47.974;13.826;2023-04-24T07:24:52;10.10;99.90
30250;DHT22;17064;47.974;13.826;2023-04-24T07:29:53;10.10;99.90
30250;DHT22;17064;47.974;13.826;2023-04-24T07:34:53;10.00;99.90
30250;DHT22;17064;47.974;13.826;2023-04-24T07:39:55;10.00;99.90
30250;DHT22;17064;47.974;13.826;2023-04-24T07:44:55;10.10;99.90
30250;DHT22;17064;47.974;13.826;2023-04-24T07:49:56;10.10;99.90
30250;DHT22;17064;47.974;13.826;2023-04-24T07:54:57;10.20;99.90
30250;DHT22;17064;47.974;13.826;2023-04-24T08:00:03;10.30;99.90
30250;DHT22;17064;47.974;13.826;2023-04-24T08:05:05;10.30;99.90
30250;DHT22;17064;47.974;13.826;2023-04-24T08:10:06;10.40;99.90
30250;DHT22;17064;47.974;13.826;2023-04-24T08:15:07;10.50;99.90
30250;DHT22;17064;47.974;13.826;2023-04-24T08:20:10;10.70;99.90
30250;DHT22;17064;47.974;13.826;2023-04-24T08:25:14;10.80;99.90
30250;DHT22;17064;47.974;13.826;2023-04-24T08:30:14;10.90;99.90
30250;DHT22;17064;47.974;13.826;2023-04-24T08:35:15;11.00;99.90
30250;DHT22;17064;47.974;13.826;2023-04-24T08:40:16;11.00;99.90
30250;DHT22;17064;47.974;13.826;2023-04-24T08:45:17;11.00;99.90
30250;DHT22;17064;47.974;13.826;2023-04-24T08:50:18;11.00;99.90
30250;DHT22;17064;47.974;13.826;2023-04-24T08:55:20;10.90;99.90
30250;DHT22;17064;47.974;13.826;2023-04-24T09:00:21;11.10;99.90
30250;DHT22;17064;47.974;13.826;2023-04-24T09:05:23;11.10;99.90
30250;DHT22;17064;47.974;13.826;2023-04-24T09:10:26;11.30;99.90
30250;DHT22;17064;47.974;13.826;2023-04-24T09:15:28;11.60;99.90
30250;DHT22;17064;47.974;13.826;2023-04-24T09:20:29;11.80;99.90
30250;DHT22;17064;47.974;13.826;2023-04-24T09:25:34;11.70;99.90
30250;DHT22;17064;47.974;13.826;2023-04-24T09:30:36;11.70;99.90
30250;DHT22;17064;47.974;13.826;2023-04-24T09:35:49;11.80;99.90
30250;DHT22;17064;47.974;13.826;2023-04-24T09:40:50;11.90;99.90
30250;DHT22;17064;47.974;13.826;2023-04-24T09:45:56;12.10;99.90
30250;DHT22;17064;47.974;13.826;2023-04-24T09:50:57;12.10;99.90
30250;DHT22;17064;47.974;13.826;2023-04-24T09:56:09;12.30;99.90
30250;DHT22;17064;47.974;13.826;2023-04-24T10:01:10;12.20;99.90
30250;DHT22;17064;47.974;13.826;2023-04-24T10:06:12;12.10;99.90
30250;DHT22;17064;47.974;13.826;2023-04-24T10:11:13;12.10;99.90
30250;DHT22;17064;47.974;13.826;2023-04-24T10:16:14;12.10;99.90
30250;DHT22;17064;47.974;13.826;2023-04-24T10:21:17;12.20;99.90
30250;DHT22;17064;47.974;13.826;2023-04-24T10:26:18;12.20;99.90
30250;DHT22;17064;47.974;13.826;2023-04-24T10:31:20;12.10;99.90
30250;DHT22;17064;47.974;13.826;2023-04-24T10:36:22;11.80;99.90
30250;DHT22;17064;47.974;13.826;2023-04-24T10:41:25;11.70;99.90
30250;DHT22;17064;47.974;13.826;2023-04-24T10:46:28;11.80;99.90
30250;DHT22;17064;47.974;13.826;2023-04-24T10:51:50;12.00;99.90
30250;DHT22;17064;47.974;13.826;2023-04-24T10:56:55;12.20;99.90
30250;DHT22;17064;47.974;13.826;2023-04-24T11:02:18;12.20;99.90
30250;DHT22;17064;47.974;13.826;2023-04-24T11:07:20;12.60;99.90
30250;DHT22;17064;47.974;13.826;2023-04-24T11:12:21;12.90;99.90
30250;DHT22;17064;47.974;13.826;2023-04-24T11:17:32;13.10;99.90
30250;DHT22;17064;47.974;13.826;2023-04-24T11:22:37;13.40;99.90
30250;DHT22;17064;47.974;13.826;2023-04-24T11:27:44;13.70;99.90
30250;DHT22;17064;47.974;13.826;2023-04-24T11:32:52;14.00;99.90
30250;DHT22;17064;47.974;13.826;2023-04-24T11:37:54;13.50;99.90
30250;DHT22;17064;47.974;13.826;2023-04-24T11:42:55;12.60;99.90
30250;DHT22;17064;47.974;13.826;2023-04-24T11:47:56;12.30;99.90
30250;DHT22;17064;47.974;13.826;2023-04-24T11:52:57;12.10;99.90
30250;DHT22;17064;47.974;13.826;2023-04-24T11:57:59;11.90;99.90
30250;DHT22;17064;47.974;13.826;2023-04-24T12:03:11;11.90;99.90
30250;DHT22;17064;47.974;13.826;2023-04-24T12:08:12;11.30;99.90
30250;DHT22;17064;47.974;13.826;2023-04-24T12:13:26;10.90;99.90
30250;DHT22;17064;47.974;13.826;2023-04-24T12:18:27;10.70;99.90
30250;DHT22;17064;47.974;13.826;2023-04-24T12:23:34;10.60;99.90
30250;DHT22;17064;47.974;13.826;2023-04-24T12:28:39;10.60;99.90
30250;DHT22;17064;47.974;13.826;2023-04-24T12:33:41;10.80;99.90
30250;DHT22;17064;47.974;13.826;2023-04-24T12:38:43;11.20;99.90
30250;DHT22;17064;47.974;13.826;2023-04-24T12:43:53;11.50;99.90
30250;DHT22;17064;47.974;13.826;2023-04-24T12:48:55;11.60;99.90
30250;DHT22;17064;47.974;13.826;2023-04-24T12:53:56;11.70;99.90
30250;DHT22;17064;47.974;13.826;2023-04-24T12:58:57;11.90;99.90
30250;DHT22;17064;47.974;13.826;2023-04-24T13:03:58;12.10;99.90
30250;DHT22;17064;47.974;13.826;2023-04-24T13:09:00;12.30;99.90
30250;DHT22;17064;47.974;13.826;2023-04-24T13:14:00;12.50;99.90
30250;DHT22;17064;47.974;13.826;2023-04-24T13:19:01;12.70;99.90
30250;DHT22;17064;47.974;13.826;2023-04-24T13:24:02;12.90;99.90
30250;DHT22;17064;47.974;13.826;2023-04-24T13:29:06;13.00;99.90
30250;DHT22;17064;47.974;13.826;2023-04-24T13:34:07;13.20;99.90
30250;DHT22;17064;47.974;13.826;2023-04-24T13:39:07;13.40;99.90
30250;DHT22;17064;47.974;13.826;2023-04-24T13:44:09;13.50;99.90
30250;DHT22;17064;47.974;13.826;2023-04-24T13:49:10;13.50;99.90
30250;DHT22;17064;47.974;13.826;2023-04-24T13:54:11;13.10;99.90
30250;DHT22;17064;47.974;13.826;2023-04-24T13:59:15;12.90;99.90
30250;DHT22;17064;47.974;13.826;2023-04-24T14:04:15;12.60;99.90
30250;DHT22;17064;47.974;13.826;2023-04-24T14:09:16;11.80;99.90
30250;DHT22;17064;47.974;13.826;2023-04-24T14:14:17;10.50;99.90
30250;DHT22;17064;47.974;13.826;2023-04-24T14:19:18;9.90;99.90
30250;DHT22;17064;47.974;13.826;2023-04-24T14:24:18;9.70;99.90
30250;DHT22;17064;47.974;13.826;2023-04-24T14:29:19;9.60;99.90
30250;DHT22;17064;47.974;13.826;2023-04-24T14:34:20;9.60;99.90
30250;DHT22;17064;47.974;13.826;2023-04-24T14:39:21;9.60;99.90
30250;DHT22;17064;47.974;13.826;2023-04-24T14:44:21;9.60;99.90
30250;DHT22;17064;47.974;13.826;2023-04-24T14:49:23;9.70;99.90
30250;DHT22;17064;47.974;13.826;2023-04-24T14:54:23;9.80;99.90
30250;DHT22;17064;47.974;13.826;2023-04-24T14:59:25;10.00;99.90
30250;DHT22;17064;47.974;13.826;2023-04-24T15:04:26;10.10;99.90
30250;DHT22;17064;47.974;13.826;2023-04-24T15:09:27;10.20;99.90
30250;DHT22;17064;47.974;13.826;2023-04-24T15:14:28;10.40;99.90
30250;DHT22;17064;47.974;13.826;2023-04-24T15:19:30;10.70;99.90
30250;DHT22;17064;47.974;13.826;2023-04-24T15:24:31;10.80;99.90
30250;DHT22;17064;47.974;13.826;2023-04-24T15:29:32;10.80;99.90
30250;DHT22;17064;47.974;13.826;2023-04-24T15:34:32;10.70;99.90
30250;DHT22;17064;47.974;13.826;2023-04-24T15:39:33;10.30;99.90
30250;DHT22;17064;47.974;13.826;2023-04-24T15:44:34;9.90;99.90
30250;DHT22;17064;47.974;13.826;2023-04-24T15:49:35;9.60;99.90
30250;DHT22;17064;47.974;13.826;2023-04-24T15:54:36;9.40;99.90
30250;DHT22;17064;47.974;13.826;2023-04-24T15:59:38;9.30;99.90
30250;DHT22;17064;47.974;13.826;2023-04-24T16:04:39;9.10;99.90
30250;DHT22;17064;47.974;13.826;2023-04-24T16:09:40;9.00;99.90
30250;DHT22;17064;47.974;13.826;2023-04-24T16:14:41;8.90;99.90
30250;DHT22;17064;47.974;13.826;2023-04-24T16:19:42;8.70;99.90
30250;DHT22;17064;47.974;13.826;2023-04-24T16:24:42;8.60;99.90
30250;DHT22;17064;47.974;13.826;2023-04-24T16:29:44;8.50;99.90
30250;DHT22;17064;47.974;13.826;2023-04-24T16:34:45;8.50;99.90
30250;DHT22;17064;47.974;13.826;2023-04-24T16:39:45;8.50;99.90
30250;DHT22;17064;47.974;13.826;2023-04-24T16:44:46;8.50;99.90
30250;DHT22;17064;47.974;13.826;2023-04-24T16:49:50;8.50;99.90
30250;DHT22;17064;47.974;13.826;2023-04-24T16:54:52;8.60;99.90
30250;DHT22;17064;47.974;13.826;2023-04-24T16:59:53;8.60;99.90
30250;DHT22;17064;47.974;13.826;2023-04-24T17:04:54;8.60;99.90
30250;DHT22;17064;47.974;13.826;2023-04-24T17:09:54;8.70;99.90
30250;DHT22;17064;47.974;13.826;2023-04-24T17:14:56;8.70;99.90
30250;DHT22;17064;47.974;13.826;2023-04-24T17:19:57;8.80;99.90
30250;DHT22;17064;47.974;13.826;2023-04-24T17:24:58;8.90;99.90
30250;DHT22;17064;47.974;13.826;2023-04-24T17:29:59;8.90;99.90
30250;DHT22;17064;47.974;13.826;2023-04-24T17:34:59;8.80;99.90
30250;DHT22;17064;47.974;13.826;2023-04-24T17:40:05;8.80;99.90
30250;DHT22;17064;47.974;13.826;2023-04-24T17:45:06;8.80;99.90
30250;DHT22;17064;47.974;13.826;2023-04-24T17:50:07;8.70;99.90
30250;DHT22;17064;47.974;13.826;2023-04-24T17:55:08;8.70;99.90
30250;DHT22;17064;47.974;13.826;2023-04-24T18:00:10;8.70;99.90
30250;DHT22;17064;47.974;13.826;2023-04-24T18:05:12;8.80;99.90
30250;DHT22;17064;47.974;13.826;2023-04-24T18:10:14;8.80;99.90
30250;DHT22;17064;47.974;13.826;2023-04-24T18:15:14;8.80;99.90
30250;DHT22;17064;47.974;13.826;2023-04-24T18:20:17;8.80;99.90
30250;DHT22;17064;47.974;13.826;2023-04-24T18:25:18;8.60;99.90
30250;DHT22;17064;47.974;13.826;2023-04-24T18:30:25;8.50;99.90
30250;DHT22;17064;47.974;13.826;2023-04-24T18:35:27;8.50;99.90
30250;DHT22;17064;47.974;13.826;2023-04-24T18:40:28;8.40;99.90
30250;DHT22;17064;47.974;13.826;2023-04-24T18:45:29;8.40;99.90
30250;DHT22;17064;47.974;13.826;2023-04-24T18:50:30;8.50;99.90
30250;DHT22;17064;47.974;13.826;2023-04-24T18:55:31;8.60;99.90
30250;DHT22;17064;47.974;13.826;2023-04-24T19:00:34;8.60;99.90
30250;DHT22;17064;47.974;13.826;2023-04-24T19:05:35;8.60;99.90
30250;DHT22;17064;47.974;13.826;2023-04-24T19:10:36;8.60;99.90
30250;DHT22;17064;47.974;13.826;2023-04-24T19:15:37;8.60;99.90
30250;DHT22;17064;47.974;13.826;2023-04-24T19:20:39;8.70;99.90
30250;DHT22;17064;47.974;13.826;2023-04-24T19:25:40;8.70;99.90
30250;DHT22;17064;47.974;13.826;2023-04-24T19:30:42;8.60;99.90
30250;DHT22;17064;47.974;13.826;2023-04-24T19:35:43;8.60;99.90
30250;DHT22;17064;47.974;13.826;2023-04-24T19:40:44;8.50;99.90
30250;DHT22;17064;47.974;13.826;2023-04-24T19:45:45;8.50;99.90
30250;DHT22;17064;47.974;13.826;2023-04-24T19:50:46;8.30;99.90
30250;DHT22;17064;47.974;13.826;2023-04-24T19:55:46;8.30;99.90
30250;DHT22;17064;47.974;13.826;2023-04-24T20:00:47;8.20;99.90
30250;DHT22;17064;47.974;13.826;2023-04-24T20:05:48;8.10;99.90
30250;DHT22;17064;47.974;13.826;2023-04-24T20:10:48;8.10;99.90
30250;DHT22;17064;47.974;13.826;2023-04-24T20:15:50;7.90;99.90
30250;DHT22;17064;47.974;13.826;2023-04-24T20:20:53;7.90;99.90
30250;DHT22;17064;47.974;13.826;2023-04-24T20:25:56;7.90;99.90
30250;DHT22;17064;47.974;13.826;2023-04-24T20:31:00;7.90;99.90
30250;DHT22;17064;47.974;13.826;2023-04-24T20:36:01;7.90;99.90
30250;DHT22;17064;47.974;13.826;2023-04-24T20:41:02;7.90;99.90
30250;DHT22;17064;47.974;13.826;2023-04-24T20:46:03;7.90;99.90
30250;DHT22;17064;47.974;13.826;2023-04-24T20:51:04;7.80;99.90
30250;DHT22;17064;47.974;13.826;2023-04-24T20:56:05;7.80;99.90
30250;DHT22;17064;47.974;13.826;2023-04-24T21:01:08;7.70;99.90
30250;DHT22;17064;47.974;13.826;2023-04-24T21:06:09;7.80;99.90
30250;DHT22;17064;47.974;13.826;2023-04-24T21:11:10;7.70;99.90
30250;DHT22;17064;47.974;13.826;2023-04-24T21:16:10;7.80;99.90
30250;DHT22;17064;47.974;13.826;2023-04-24T21:21:11;7.70;99.90
30250;DHT22;17064;47.974;13.826;2023-04-24T21:26:12;7.70;99.90
30250;DHT22;17064;47.974;13.826;2023-04-24T21:31:12;7.60;99.90
30250;DHT22;17064;47.974;13.826;2023-04-24T21:36:13;7.60;99.90
30250;DHT22;17064;47.974;13.826;2023-04-24T21:41:14;7.50;99.90
30250;DHT22;17064;47.974;13.826;2023-04-24T21:46:15;7.40;99.90
30250;DHT22;17064;47.974;13.826;2023-04-24T21:51:15;7.40;99.90
30250;DHT22;17064;47.974;13.826;2023-04-24T21:56:17;7.30;99.90
30250;DHT22;17064;47.974;13.826;2023-04-24T22:01:18;7.20;99.90
30250;DHT22;17064;47.974;13.826;2023-04-24T22:06:19;7.20;99.90
30250;DHT22;17064;47.974;13.826;2023-04-24T22:11:20;7.20;99.90
30250;DHT22;17064;47.974;13.826;2023-04-24T22:16:21;7.20;99.90
30250;DHT22;17064;47.974;13.826;2023-04-24T22:21:23;7.20;99.90
30250;DHT22;17064;47.974;13.826;2023-04-24T22:26:23;7.20;99.90
30250;DHT22;17064;47.974;13.826;2023-04-24T22:31:24;7.10;99.90
30250;DHT22;17064;47.974;13.826;2023-04-24T22:36:25;7.10;99.90
30250;DHT22;17064;47.974;13.826;2023-04-24T22:41:26;7.00;99.90
30250;DHT22;17064;47.974;13.826;2023-04-24T22:46:27;6.90;99.90
30250;DHT22;17064;47.974;13.826;2023-04-24T22:51:28;6.80;99.90
30250;DHT22;17064;47.974;13.826;2023-04-24T22:56:29;6.70;99.90
30250;DHT22;17064;47.974;13.826;2023-04-24T23:01:31;6.60;99.90
30250;DHT22;17064;47.974;13.826;2023-04-24T23:06:31;6.50;99.90
30250;DHT22;17064;47.974;13.826;2023-04-24T23:11:32;6.40;99.90
30250;DHT22;17064;47.974;13.826;2023-04-24T23:16:33;6.40;99.90
30250;DHT22;17064;47.974;13.826;2023-04-24T23:21:36;6.40;99.90
30250;DHT22;17064;47.974;13.826;2023-04-24T23:26:37;6.40;99.90
30250;DHT22;17064;47.974;13.826;2023-04-24T23:31:38;6.30;99.90
30250;DHT22;17064;47.974;13.826;2023-04-24T23:36:38;6.20;99.90
30250;DHT22;17064;47.974;13.826;2023-04-24T23:41:39;6.20;99.90
30250;DHT22;17064;47.974;13.826;2023-04-24T23:46:43;6.00;99.90
30250;DHT22;17064;47.974;13.826;2023-04-24T23:51:44;5.80;99.90
30250;DHT22;17064;47.974;13.826;2023-04-24T23:56:45;5.70;99.90
